»·PEaware :: N4902F KHHR-KONT

N4902F :: KHHR-KONT

FLIGHT INFORMATION

Flight Status: Arrived
Operator: Privately registered:
United States
More flights under this callsign
Pilot: Cameron Lampert (13331)
Aircraft: CESSNA 172 SKYHAWK
(C172)
More flights by this aircraft type
Origin: KHHR Northrop/Hawthorne Mun
United States
Destination: KONT Ontario Intl
United States
More flights between these airports :: More routes between these airports
Route: FUL CNO
File this flight plan on PilotEdge
Remarks: VFR
Altitude:
(Current/Filed)
5,500ft
Speed:
(Current/Filed)
90kts
Departed: 27-Dec-16 02:41 PM
Arrived: 27-Dec-16 03:12 PM
Distance/Time
Traveled:
37nm/0:31
Distance/Time
To Go:
Arrived

Flight Plot

Page will automatically refresh every two minutes.

Flight plan parsing failed; only flown route is shown


Map Options




Map Legend


Flown Route
Filed Route
Departure Airport
Arrival Airport
Navaid (VOR, NDB)
Fix

Horizontal Profiles

Position Reports

Time Latitude Longitude Heading Altitude Ground
Speed
27-Dec-16 14:24 33.923814 -118.336167 356 69ft 0kts
27-Dec-16 14:25 33.923814 -118.336167 356 69ft 0kts
27-Dec-16 14:26 33.923814 -118.336167 356 69ft 0kts
27-Dec-16 14:27 33.923817 -118.336167 356 69ft 0kts
27-Dec-16 14:28 33.923821 -118.336167 356 69ft 0kts
27-Dec-16 14:29 33.923827 -118.336168 356 69ft 0kts
27-Dec-16 14:30 33.923834 -118.336168 356 69ft 0kts
27-Dec-16 14:31 33.923841 -118.336169 356 69ft 0kts
27-Dec-16 14:32 33.923848 -118.336169 356 69ft 0kts
27-Dec-16 14:33 33.923961 -118.336111 80 69ft 0kts
27-Dec-16 14:35 33.923542 -118.332424 86 69ft 11kts
27-Dec-16 14:36 33.922415 -118.329216 86 69ft 21kts
27-Dec-16 14:37 33.922764 -118.326932 347 69ft 0kts
27-Dec-16 14:38 33.922767 -118.326933 347 69ft 0kts
27-Dec-16 14:39 33.922770 -118.326934 347 69ft 0kts
27-Dec-16 14:40 33.922842 -118.326947 354 69ft 7kts
27-Dec-16 14:41 33.922871 -118.337269 266 316ft 58kts
27-Dec-16 14:42 33.915767 -118.353527 174 916ft 90kts
27-Dec-16 14:43 33.910509 -118.327518 90 1338ft 89kts
27-Dec-16 14:44 33.910546 -118.295151 85 1426ft 100kts
27-Dec-16 14:45 33.911513 -118.261666 89 1469ft 109kts
27-Dec-16 14:46 33.912525 -118.228123 85 1529ft 97kts
27-Dec-16 14:47 33.913710 -118.195418 86 1542ft 109kts
27-Dec-16 14:48 33.914112 -118.155640 88 1461ft 115kts
27-Dec-16 14:49 33.914932 -118.119075 98 1570ft 98kts
27-Dec-16 14:50 33.899758 -118.095744 136 2133ft 91kts
27-Dec-16 14:51 33.888555 -118.077947 123 3008ft 64kts
27-Dec-16 14:52 33.878086 -118.055654 112 3521ft 83kts
27-Dec-16 14:53 33.873362 -118.020539 90 3410ft 120kts
27-Dec-16 14:54 33.872224 -117.992170 85 4347ft 76kts
27-Dec-16 14:55 33.875037 -117.966759 81 4815ft 80kts
27-Dec-16 14:56 33.877027 -117.941609 82 5412ft 75kts
27-Dec-16 14:57 33.880755 -117.915541 80 5404ft 88kts
27-Dec-16 14:58 33.887142 -117.885797 81 5428ft 80kts
27-Dec-16 14:59 33.890627 -117.856376 83 5390ft 93kts
27-Dec-16 15:00 33.896327 -117.826816 80 5429ft 89kts
27-Dec-16 15:01 33.902172 -117.798329 78 5472ft 87kts
27-Dec-16 15:02 33.909979 -117.769388 62 5390ft 99kts
27-Dec-16 15:03 33.932064 -117.743803 45 5026ft 118kts
27-Dec-16 15:04 33.954993 -117.716445 45 4396ft 116kts
27-Dec-16 15:05 33.977539 -117.691313 43 3980ft 99kts
27-Dec-16 15:06 33.997153 -117.672847 43 3827ft 90kts
27-Dec-16 15:07 34.017810 -117.648688 50 3236ft 107kts
27-Dec-16 15:08 34.034935 -117.622442 80 2643ft 98kts
27-Dec-16 15:09 34.040132 -117.588098 86 2035ft 95kts
27-Dec-16 15:10 34.049112 -117.571161 4 2004ft 70kts
27-Dec-16 15:11 34.054843 -117.593233 278 1038ft 85kts
27-Dec-16 15:12 34.054308 -117.604378 141 947ft 0kts
27-Dec-16 15:13 34.053990 -117.604114 148 947ft 12kts
27-Dec-16 15:14 34.051363 -117.604137 281 947ft 0kts
27-Dec-16 15:15 34.051364 -117.604144 281 947ft 0kts
27-Dec-16 15:16 34.051365 -117.604151 281 947ft 0kts

Navigation Log

Ident Type
Flight plan parsing failed, navigation log unavailable